Daihatsumaru — JD2764 — position and weather

sailwx.info

Track history (hours):
 
Tides and Currents Weather Stations Pressure Air Temp Water Temp Dewpoint Dewpoint Depression Visibility Wind Speed Wind Dir Waves Ship Positions

Daihatsumaru

Last reported at 2015-May-23 04:33 UTC. Time now 2015-May-27 15:54 UTC.
Position N 34°37' E 134°56'.

Length 106 m; draft 4.5 m.

Type: Cargo ship. MMSI: 431000701.

Date/timePositionNaut miles runAvg speedWind from/ knotsBaromVisibWave heightAir tempDewpointWater temp
2015-May-23 04:33N 34°37' E 134°56'1414.3
2015-May-23 03:33N 34°36' E 135°14'9 8.9
2015-May-23 02:29N 34°41' E 135°23'0 0.0
2015-May-23 01:29N 34°41' E 135°23'0 0.0
2015-May-23 00:17N 34°41' E 135°23'0 0.0
2015-May-22 23:29N 34°41' E 135°23'0 0.4
2015-May-22 22:33N 34°41' E 135°23'2 1.6
2015-May-22 21:24N 34°40' E 135°21'0 0.0
2015-May-22 20:18N 34°40' E 135°21'0 0.0
2015-May-22 19:33N 34°40' E 135°21'1010.0
2015-May-22 18:33N 34°35' E 135°11'1414.2
2015-May-22 17:33N 34°35' E 134°54'4 0.1
2015-May-21 04:31N 34°37' E 134°57'1313.4
2015-May-21 03:33N 34°36' E 135°13'10 8.9
2015-May-21 02:27N 34°41' E 135°23'0 0.0
2015-May-21 01:27N 34°41' E 135°23'0 0.0
2015-May-21 00:33N 34°41' E 135°23'0 0.0
2015-May-20 23:33N 34°41' E 135°23'0 0.0
2015-May-20 22:33N 34°41' E 135°23'2 2.1
2015-May-20 21:25N 34°40' E 135°21'0 0.0
2015-May-20 20:13N 34°40' E 135°21'0 0.0
2015-May-20 19:32N 34°40' E 135°21'1110.7
2015-May-20 18:33N 34°35' E 135°10'15 0.4
2015-May-19 04:31N 34°35' E 134°51'1111.0
2015-May-19 03:33N 34°36' E 135°04'1414.1
2015-May-19 02:33N 34°40' E 135°21'3 2.7
2015-May-19 01:29N 34°41' E 135°23'0 0.0
2015-May-19 00:29N 34°41' E 135°23'0 0.0
2015-May-18 23:29N 34°41' E 135°23'0 0.0
2015-May-18 22:29N 34°41' E 135°23'0 0.0
2015-May-18 21:29N 34°41' E 135°23'0 0.0
2015-May-18 20:23N 34°41' E 135°23'0 0.0
2015-May-18 19:29N 34°41' E 135°23'0 0.0
2015-May-18 18:29N 34°41' E 135°23'0 0.0
2015-May-18 17:29N 34°41' E 135°23'0 0.0
2015-May-18 16:23N 34°41' E 135°23'0 0.0
2015-May-18 15:29N 34°41' E 135°23'0 0.0
2015-May-18 14:29N 34°41' E 135°23'0 0.0
2015-May-18 13:29N 34°41' E 135°23'0 0.0
2015-May-18 12:29N 34°41' E 135°23'0 0.0
2015-May-18 11:29N 34°41' E 135°23'0 0.0
2015-May-18 10:11N 34°41' E 135°23'0 0.0
2015-May-18 09:29N 34°41' E 135°23'0 0.0
2015-May-18 08:23N 34°41' E 135°23'0 0.0
2015-May-18 07:29N 34°41' E 135°23'0 0.0
2015-May-18 06:29N 34°41' E 135°23'0 0.0
2015-May-18 05:29N 34°41' E 135°23'0 0.0
2015-May-18 04:23N 34°41' E 135°23'0 0.0
2015-May-18 03:29N 34°41' E 135°23'0 0.0
2015-May-18 02:11N 34°41' E 135°23'0 0.0
2015-May-18 01:17N 34°41' E 135°23'0 0.0
2015-May-18 00:29N 34°41' E 135°23'0 0.0
2015-May-17 23:29N 34°41' E 135°23'0 0.0
2015-May-17 22:33N 34°41' E 135°23'2 2.4
2015-May-17 21:34N 34°40' E 135°21'0 0.0
2015-May-17 20:28N 34°40' E 135°21'0 0.1
2015-May-17 19:33N 34°40' E 135°21'0 0.0
2015-May-17 18:34N 34°40' E 135°21'0 0.0
2015-May-17 17:28N 34°40' E 135°21'0 0.0
2015-May-17 16:33N 34°40' E 135°21'0 0.0
2015-May-17 15:27N 34°40' E 135°21'0 0.0
2015-May-17 14:33N 34°40' E 135°21'0 0.0
2015-May-17 13:27N 34°40' E 135°21'0 0.0
2015-May-17 12:33N 34°40' E 135°21'0 0.0
2015-May-17 11:34N 34°40' E 135°21'0 0.0
2015-May-17 10:34N 34°40' E 135°21'0 0.0
2015-May-17 09:34N 34°40' E 135°21'0 0.0
2015-May-17 08:19N 34°40' E 135°21'911.2
2015-May-17 07:33N 34°35' E 135°12'1615.3
2015-May-17 06:32N 34°35' E 134°53'3 0.1
2015-May-15 15:30N 34°36' E 134°56'1111.9
2015-May-15 14:34N 34°36' E 135°10'9 9.2
2015-May-15 13:33N 34°39' E 135°20'0 0.0
2015-May-15 12:33N 34°39' E 135°20'0 0.0
2015-May-15 11:33N 34°39' E 135°20'0 0.0
2015-May-15 10:33N 34°39' E 135°20'0 0.0
2015-May-15 09:33N 34°39' E 135°20'0 0.0
2015-May-15 08:33N 34°39' E 135°20'2 1.7
2015-May-15 07:33N 34°40' E 135°22'2 1.4
2015-May-15 06:25N 34°41' E 135°23'0 0.0
2015-May-15 05:30N 34°41' E 135°23'0 0.0
2015-May-15 04:31N 34°41' E 135°23'0 0.0
2015-May-15 03:31N 34°41' E 135°23'0 0.0
2015-May-15 02:19N 34°41' E 135°23'0 0.0
2015-May-15 01:13N 34°41' E 135°23'0 0.0
2015-May-15 00:19N 34°41' E 135°23'0 0.0
2015-May-14 23:31N 34°41' E 135°23'2 2.2
2015-May-14 22:25N 34°40' E 135°21'0 0.1
2015-May-14 21:31N 34°40' E 135°21'0 0.0
2015-May-14 20:25N 34°40' E 135°21'0 0.0
2015-May-14 19:31N 34°40' E 135°21'1 0.7
2015-May-14 18:33N 34°39' E 135°20'1414.4
2015-May-14 17:33N 34°36' E 135°03'  
Track history (hours):
 
Tides and Currents Weather Stations Pressure Air Temp Water Temp Dewpoint Dewpoint Depression Visibility Wind Speed Wind Dir Waves Ship Positions

Daihatsumaru

Last reported at 2015-May-23 04:33 UTC. Time now 2015-May-27 15:54 UTC.
Position N 34°37' E 134°56'.

Length 106 m; draft 4.5 m.

Type: Cargo ship. MMSI: 431000701.

Date/timePositionNaut miles runAvg speedWind from/ knotsBaromVisibWave heightAir tempDewpointWater temp
2015-May-23 04:33N 34°37' E 134°56'1414.3
2015-May-23 03:33N 34°36' E 135°14'9 8.9
2015-May-23 02:29N 34°41' E 135°23'0 0.0
2015-May-23 01:29N 34°41' E 135°23'0 0.0
2015-May-23 00:17N 34°41' E 135°23'0 0.0
2015-May-22 23:29N 34°41' E 135°23'0 0.4
2015-May-22 22:33N 34°41' E 135°23'2 1.6
2015-May-22 21:24N 34°40' E 135°21'0 0.0
2015-May-22 20:18N 34°40' E 135°21'0 0.0
2015-May-22 19:33N 34°40' E 135°21'1010.0
2015-May-22 18:33N 34°35' E 135°11'1414.2
2015-May-22 17:33N 34°35' E 134°54'4 0.1
2015-May-21 04:31N 34°37' E 134°57'1313.4
2015-May-21 03:33N 34°36' E 135°13'10 8.9
2015-May-21 02:27N 34°41' E 135°23'0 0.0
2015-May-21 01:27N 34°41' E 135°23'0 0.0
2015-May-21 00:33N 34°41' E 135°23'0 0.0
2015-May-20 23:33N 34°41' E 135°23'0 0.0
2015-May-20 22:33N 34°41' E 135°23'2 2.1
2015-May-20 21:25N 34°40' E 135°21'0 0.0
2015-May-20 20:13N 34°40' E 135°21'0 0.0
2015-May-20 19:32N 34°40' E 135°21'1110.7
2015-May-20 18:33N 34°35' E 135°10'15 0.4
2015-May-19 04:31N 34°35' E 134°51'1111.0
2015-May-19 03:33N 34°36' E 135°04'1414.1
2015-May-19 02:33N 34°40' E 135°21'3 2.7
2015-May-19 01:29N 34°41' E 135°23'0 0.0
2015-May-19 00:29N 34°41' E 135°23'0 0.0
2015-May-18 23:29N 34°41' E 135°23'0 0.0
2015-May-18 22:29N 34°41' E 135°23'0 0.0
2015-May-18 21:29N 34°41' E 135°23'0 0.0
2015-May-18 20:23N 34°41' E 135°23'0 0.0
2015-May-18 19:29N 34°41' E 135°23'0 0.0
2015-May-18 18:29N 34°41' E 135°23'0 0.0
2015-May-18 17:29N 34°41' E 135°23'0 0.0
2015-May-18 16:23N 34°41' E 135°23'0 0.0
2015-May-18 15:29N 34°41' E 135°23'0 0.0
2015-May-18 14:29N 34°41' E 135°23'0 0.0
2015-May-18 13:29N 34°41' E 135°23'0 0.0
2015-May-18 12:29N 34°41' E 135°23'0 0.0
2015-May-18 11:29N 34°41' E 135°23'0 0.0
2015-May-18 10:11N 34°41' E 135°23'0 0.0
2015-May-18 09:29N 34°41' E 135°23'0 0.0
2015-May-18 08:23N 34°41' E 135°23'0 0.0
2015-May-18 07:29N 34°41' E 135°23'0 0.0
2015-May-18 06:29N 34°41' E 135°23'0 0.0
2015-May-18 05:29N 34°41' E 135°23'0 0.0
2015-May-18 04:23N 34°41' E 135°23'0 0.0
2015-May-18 03:29N 34°41' E 135°23'0 0.0
2015-May-18 02:11N 34°41' E 135°23'0 0.0
2015-May-18 01:17N 34°41' E 135°23'0 0.0
2015-May-18 00:29N 34°41' E 135°23'0 0.0
2015-May-17 23:29N 34°41' E 135°23'0 0.0
2015-May-17 22:33N 34°41' E 135°23'2 2.4
2015-May-17 21:34N 34°40' E 135°21'0 0.0
2015-May-17 20:28N 34°40' E 135°21'0 0.1
2015-May-17 19:33N 34°40' E 135°21'0 0.0
2015-May-17 18:34N 34°40' E 135°21'0 0.0
2015-May-17 17:28N 34°40' E 135°21'0 0.0
2015-May-17 16:33N 34°40' E 135°21'0 0.0
2015-May-17 15:27N 34°40' E 135°21'0 0.0
2015-May-17 14:33N 34°40' E 135°21'0 0.0
2015-May-17 13:27N 34°40' E 135°21'0 0.0
2015-May-17 12:33N 34°40' E 135°21'0 0.0
2015-May-17 11:34N 34°40' E 135°21'0 0.0
2015-May-17 10:34N 34°40' E 135°21'0 0.0
2015-May-17 09:34N 34°40' E 135°21'0 0.0
2015-May-17 08:19N 34°40' E 135°21'911.2
2015-May-17 07:33N 34°35' E 135°12'1615.3
2015-May-17 06:32N 34°35' E 134°53'3 0.1
2015-May-15 15:30N 34°36' E 134°56'1111.9
2015-May-15 14:34N 34°36' E 135°10'9 9.2
2015-May-15 13:33N 34°39' E 135°20'0 0.0
2015-May-15 12:33N 34°39' E 135°20'0 0.0
2015-May-15 11:33N 34°39' E 135°20'0 0.0
2015-May-15 10:33N 34°39' E 135°20'0 0.0
2015-May-15 09:33N 34°39' E 135°20'0 0.0
2015-May-15 08:33N 34°39' E 135°20'2 1.7
2015-May-15 07:33N 34°40' E 135°22'2 1.4
2015-May-15 06:25N 34°41' E 135°23'0 0.0
2015-May-15 05:30N 34°41' E 135°23'0 0.0
2015-May-15 04:31N 34°41' E 135°23'0 0.0
2015-May-15 03:31N 34°41' E 135°23'0 0.0
2015-May-15 02:19N 34°41' E 135°23'0 0.0
2015-May-15 01:13N 34°41' E 135°23'0 0.0
2015-May-15 00:19N 34°41' E 135°23'0 0.0
2015-May-14 23:31N 34°41' E 135°23'2 2.2
2015-May-14 22:25N 34°40' E 135°21'0 0.1
2015-May-14 21:31N 34°40' E 135°21'0 0.0
2015-May-14 20:25N 34°40' E 135°21'0 0.0
2015-May-14 19:31N 34°40' E 135°21'1 0.7
2015-May-14 18:33N 34°39' E 135°20'1414.4
2015-May-14 17:33N 34°36' E 135°03'  

Dump ship's entire track history